富士山静岡空港METAR/TAF(約33km東):

RJNS 240900Z 26012KT 220V280 9999 FEW030 SCT/// 12/M02 Q1019

TAF RJNS 240506Z 2406/2512 26014KT 9999 FEW030 BECMG 2421/2500 32006KT BECMG 2500/2503 08006KT BECMG 2509/2512 36005KT

ソアリング用気象予報:
BLIPMAP 中部地方
中部日本航空連盟および大野グライダークラブの支援により運営されているソアリング用気象予報BLIPMAPの中部地方版です。

風向風力(Windy.com):
スマホでの閲覧には、アプリ版Windy(Android/iOS)が適切です。

EGC Icon